createdAt,value
2023-01-02T00:00:50.255Z,-0.47
2023-01-02T00:03:16.764Z,-0.42
2023-01-02T00:05:43.347Z,-0.45
2023-01-02T00:08:09.732Z,-0.47
2023-01-02T00:10:36.118Z,-0.50
2023-01-02T00:13:02.475Z,-0.51
2023-01-02T00:15:28.916Z,-0.59
2023-01-02T00:17:55.297Z,-0.61
2023-01-02T00:20:21.728Z,-0.65
2023-01-02T00:22:48.076Z,-0.75
2023-01-02T00:25:14.516Z,-0.86
2023-01-02T00:27:40.908Z,-0.96
2023-01-02T00:30:07.700Z,-0.93
2023-01-02T00:32:34.268Z,-0.88
2023-01-02T00:35:00.642Z,-0.90
2023-01-02T00:37:27.206Z,-0.95
2023-01-02T00:39:53.570Z,-0.82
2023-01-02T00:42:19.968Z,-0.72
2023-01-02T00:44:46.390Z,-0.80
2023-01-02T00:47:12.898Z,-0.77
2023-01-02T00:49:39.343Z,-0.85
2023-01-02T00:52:05.732Z,-0.88
2023-01-02T00:54:32.112Z,-0.93
2023-01-02T00:56:58.527Z,-0.95
2023-01-02T00:59:24.912Z,-0.90
2023-01-02T01:01:51.501Z,-0.89
2023-01-02T01:04:17.923Z,-0.92
2023-01-02T01:06:44.383Z,-0.99
2023-01-02T01:09:10.780Z,-0.99
2023-01-02T01:11:37.233Z,-0.95
2023-01-02T01:14:03.709Z,-0.98
2023-01-02T01:16:30.220Z,-0.90
2023-01-02T01:18:57.075Z,-0.90
2023-01-02T01:21:23.453Z,-0.95
2023-01-02T01:23:50.811Z,-1.03
2023-01-02T01:26:17.336Z,-1.14
2023-01-02T01:28:43.768Z,-1.06
2023-01-02T01:31:11.692Z,-1.14
2023-01-02T01:33:38.833Z,-1.13
2023-01-02T01:36:06.848Z,-1.16
2023-01-02T01:38:33.553Z,-1.04
2023-01-02T01:41:00.012Z,-0.96
2023-01-02T01:43:36.904Z,-1.01
2023-01-02T01:46:04.864Z,-1.02
2023-01-02T01:48:32.100Z,-0.96
2023-01-02T01:50:58.574Z,-1.02
2023-01-02T01:53:25.323Z,-1.11
2023-01-02T01:55:53.523Z,-0.98
2023-01-02T01:58:24.525Z,-0.95
2023-01-02T02:00:51.505Z,-0.99
2023-01-02T02:03:20.354Z,-0.96
2023-01-02T02:05:47.524Z,-0.93
2023-01-02T02:08:32.838Z,-1.04
2023-01-02T02:11:00.027Z,-1.01
2023-01-02T02:13:26.673Z,-1.15
2023-01-02T02:16:12.968Z,-1.04
2023-01-02T02:18:42.148Z,-1.07
2023-01-02T02:21:17.641Z,-1.07
2023-01-02T02:24:02.465Z,-1.02
2023-01-02T02:26:47.439Z,-1.10
2023-01-02T02:29:34.518Z,-1.13
2023-01-02T02:32:10.693Z,-1.18
2023-01-02T02:34:50.967Z,-1.24
2023-01-02T02:37:36.133Z,-1.25
2023-01-02T02:40:11.872Z,-1.15
2023-01-02T02:42:57.043Z,-1.23
2023-01-02T02:45:42.177Z,-1.25
2023-01-02T02:48:15.965Z,-1.19
2023-01-02T02:50:46.248Z,-1.10
2023-01-02T02:53:18.370Z,-1.09
2023-01-02T02:55:47.087Z,-1.11
2023-01-02T02:58:14.631Z,-1.08
2023-01-02T03:00:41.074Z,-1.14
2023-01-02T03:03:17.442Z,-1.20
2023-01-02T03:05:49.524Z,-1.27
2023-01-02T03:08:15.852Z,-1.16
2023-01-02T03:11:02.306Z,-1.21
2023-01-02T03:13:41.496Z,-1.18
2023-01-02T03:16:14.606Z,-1.23
2023-01-02T03:18:45.646Z,-1.33
2023-01-02T03:21:27.955Z,-1.25
2023-01-02T03:23:58.948Z,-1.31
2023-01-02T03:26:27.828Z,-1.35
2023-01-02T03:28:57.702Z,-1.40
2023-01-02T03:31:25.946Z,-1.38
2023-01-02T03:33:54.595Z,-1.36
2023-01-02T03:36:23.155Z,-1.42
2023-01-02T03:38:56.125Z,-1.38
2023-01-02T03:41:28.524Z,-1.37
2023-01-02T03:43:57.252Z,-1.40
2023-01-02T03:46:39.044Z,-1.48
2023-01-02T03:49:12.334Z,-1.57
2023-01-02T03:51:38.844Z,-1.63
2023-01-02T03:54:05.838Z,-1.68
2023-01-02T03:56:32.193Z,-1.73
2023-01-02T03:59:03.904Z,-1.73
2023-01-02T04:01:45.801Z,-1.71
2023-01-02T04:04:15.060Z,-1.65
2023-01-02T04:06:45.592Z,-1.54
2023-01-02T04:09:18.452Z,-1.66
2023-01-02T04:11:46.936Z,-1.64
2023-01-02T04:14:33.595Z,-1.70
2023-01-02T04:17:01.067Z,-1.60
2023-01-02T04:19:30.168Z,-1.59
2023-01-02T04:21:59.091Z,-1.65
2023-01-02T04:24:34.660Z,-1.69
2023-01-02T04:27:09.460Z,-1.70
2023-01-02T04:29:35.883Z,-1.81
2023-01-02T04:32:15.056Z,-1.69
2023-01-02T04:34:42.867Z,-1.71
2023-01-02T04:37:09.463Z,-1.59
2023-01-02T04:39:40.428Z,-1.59
2023-01-02T04:42:07.265Z,-1.58
2023-01-02T04:44:33.697Z,-1.60
2023-01-02T04:47:00.167Z,-1.63
2023-01-02T04:49:27.214Z,-1.77
2023-01-02T04:51:57.088Z,-1.69
2023-01-02T04:54:28.282Z,-1.77
2023-01-02T04:56:54.652Z,-1.77
2023-01-02T04:59:21.023Z,-1.73
2023-01-02T05:01:47.465Z,-1.64
2023-01-02T05:04:15.175Z,-1.58
2023-01-02T05:06:41.632Z,-1.64
2023-01-02T05:09:08.098Z,-1.77
2023-01-02T05:11:35.037Z,-1.77
2023-01-02T05:14:07.549Z,-1.79
2023-01-02T05:16:38.288Z,-1.79
2023-01-02T05:19:04.741Z,-1.69
2023-01-02T05:21:53.822Z,-1.79
2023-01-02T05:24:20.263Z,-1.73
2023-01-02T05:26:49.706Z,-1.69
2023-01-02T05:29:16.622Z,-1.74
2023-01-02T05:31:45.618Z,-1.81
2023-01-02T05:34:15.536Z,-1.73
2023-01-02T05:36:42.123Z,-1.78
2023-01-02T05:39:15.088Z,-1.75
2023-01-02T05:41:42.365Z,-1.72
2023-01-02T05:44:09.890Z,-1.69
2023-01-02T05:46:37.244Z,-1.68
2023-01-02T05:49:04.365Z,-1.77
2023-01-02T05:51:33.961Z,-1.71
2023-01-02T05:54:04.138Z,-1.75
2023-01-02T05:56:34.156Z,-1.63
2023-01-02T05:59:03.966Z,-1.67
2023-01-02T06:01:30.534Z,-1.74
2023-01-02T06:03:58.546Z,-1.76
2023-01-02T06:06:26.657Z,-1.85
2023-01-02T06:08:55.186Z,-1.89
2023-01-02T06:11:21.749Z,-1.87
2023-01-02T06:13:50.888Z,-1.88
2023-01-02T06:16:22.381Z,-1.86
2023-01-02T06:18:48.862Z,-1.90
2023-01-02T06:21:15.897Z,-1.85
2023-01-02T06:23:42.950Z,-1.80
2023-01-02T06:26:13.988Z,-1.74
2023-01-02T06:28:40.961Z,-1.72
2023-01-02T06:31:11.925Z,-1.82
2023-01-02T06:33:39.855Z,-1.94
2023-01-02T06:36:09.867Z,-2.01
2023-01-02T06:38:36.459Z,-1.97
2023-01-02T06:41:07.019Z,-2.02
2023-01-02T06:43:33.839Z,-2.04
2023-01-02T06:46:01.069Z,-1.96
2023-01-02T06:48:28.922Z,-2.08
2023-01-02T06:50:55.810Z,-2.03
2023-01-02T06:53:22.284Z,-1.90
2023-01-02T06:55:58.914Z,-1.94
2023-01-02T06:58:25.972Z,0.17
2023-01-02T07:00:52.508Z,-0.26
2023-01-02T07:03:19.087Z,-0.87
2023-01-02T07:05:49.959Z,-1.22
2023-01-02T07:08:18.447Z,-1.38
2023-01-02T07:10:52.669Z,-1.36
2023-01-02T07:13:23.366Z,-1.47
2023-01-02T07:15:49.783Z,-1.56
2023-01-02T07:18:16.199Z,-1.46
2023-01-02T07:20:42.561Z,-1.46
2023-01-02T07:23:09.420Z,-1.48
2023-01-02T07:25:44.185Z,-1.52
2023-01-02T07:28:12.966Z,-1.48
2023-01-02T07:30:39.309Z,-1.42
2023-01-02T07:33:05.709Z,-1.30
2023-01-02T07:35:32.140Z,-1.17
2023-01-02T07:37:58.535Z,-1.11
2023-01-02T07:40:30.235Z,-1.03
2023-01-02T07:43:02.134Z,-0.95
2023-01-02T07:45:28.599Z,-0.85
2023-01-02T07:47:55.035Z,-0.81
2023-01-02T07:50:21.656Z,-0.61
2023-01-02T07:52:51.239Z,-0.53
2023-01-02T07:55:17.688Z,-0.51
2023-01-02T07:57:47.742Z,-0.35
2023-01-02T08:00:15.131Z,-0.14
2023-01-02T08:02:47.062Z,0.57
2023-01-02T08:05:13.471Z,2.87
2023-01-02T08:07:44.785Z,5.12
2023-01-02T08:10:12.399Z,6.78
2023-01-02T08:12:38.824Z,7.81
2023-01-02T08:15:06.581Z,8.98
2023-01-02T08:17:33.228Z,9.70
2023-01-02T08:20:07.678Z,10.93
2023-01-02T08:22:35.374Z,11.90
2023-01-02T08:25:01.882Z,12.30
2023-01-02T08:27:28.303Z,12.21
2023-01-02T08:29:54.909Z,12.37
2023-01-02T08:32:21.802Z,13.34
2023-01-02T08:34:48.222Z,13.44
2023-01-02T08:37:14.829Z,13.46
2023-01-02T08:39:43.370Z,13.89
2023-01-02T08:42:09.801Z,14.51
2023-01-02T08:44:38.098Z,15.18
2023-01-02T08:47:05.239Z,15.03
2023-01-02T08:49:31.690Z,15.57
2023-01-02T08:51:58.638Z,15.73
2023-01-02T08:54:25.110Z,16.20
2023-01-02T08:56:51.627Z,16.62
2023-01-02T08:59:18.254Z,16.83
2023-01-02T09:01:45.349Z,16.53
2023-01-02T09:04:13.445Z,16.84
2023-01-02T09:06:40.696Z,16.12
2023-01-02T09:09:11.524Z,16.81
2023-01-02T09:11:43.071Z,16.70
2023-01-02T09:14:09.473Z,17.51
2023-01-02T09:16:37.885Z,17.46
2023-01-02T09:19:04.545Z,17.06
2023-01-02T09:21:31.097Z,17.44
2023-01-02T09:24:01.375Z,17.01
2023-01-02T09:26:27.739Z,17.14
2023-01-02T09:28:54.146Z,17.23
2023-01-02T09:31:21.888Z,17.20
2023-01-02T09:33:48.657Z,17.71
2023-01-02T09:36:16.683Z,18.03
2023-01-02T09:38:43.178Z,18.06
2023-01-02T09:41:32.985Z,18.48
2023-01-02T09:44:08.404Z,18.93
2023-01-02T09:46:43.803Z,19.23
2023-01-02T09:49:14.218Z,18.61
2023-01-02T09:51:41.402Z,18.89
2023-01-02T09:54:16.742Z,19.04
2023-01-02T09:56:48.029Z,18.99
2023-01-02T09:59:14.408Z,19.68
2023-01-02T10:02:07.378Z,19.69
2023-01-02T10:04:56.197Z,19.88
2023-01-02T10:07:28.730Z,19.84
2023-01-02T10:10:05.673Z,20.17
2023-01-02T10:12:43.934Z,20.20
2023-01-02T10:15:19.025Z,20.17
2023-01-02T10:17:48.449Z,19.85
2023-01-02T10:20:17.692Z,20.26
2023-01-02T10:22:53.784Z,20.42
2023-01-02T10:25:43.820Z,20.26
2023-01-02T10:28:48.079Z,20.61
2023-01-02T10:31:19.211Z,20.99
2023-01-02T10:33:54.079Z,20.45
2023-01-02T10:36:39.081Z,20.01
2023-01-02T10:39:07.021Z,20.51
2023-01-02T10:41:35.265Z,19.97
2023-01-02T10:44:03.843Z,20.21
2023-01-02T10:46:35.539Z,19.32
2023-01-02T10:49:03.309Z,19.03
2023-01-02T10:51:30.643Z,19.76
2023-01-02T10:54:01.349Z,19.57
2023-01-02T10:56:30.951Z,19.66
2023-01-02T10:58:57.418Z,19.80
2023-01-02T11:01:23.986Z,20.26
2023-01-02T11:04:09.949Z,20.33
2023-01-02T11:06:40.148Z,20.73
2023-01-02T11:09:21.005Z,20.92
2023-01-02T11:11:51.884Z,21.76
2023-01-02T11:14:23.502Z,21.84
2023-01-02T11:16:50.411Z,21.75
2023-01-02T11:19:29.218Z,21.77
2023-01-02T11:21:56.493Z,21.21
2023-01-02T11:24:27.025Z,21.06
2023-01-02T11:26:54.645Z,20.76
2023-01-02T11:29:25.999Z,21.65
2023-01-02T11:31:58.924Z,21.25
2023-01-02T11:34:37.725Z,21.37
2023-01-02T11:37:24.775Z,21.31
2023-01-02T11:40:03.514Z,20.87
2023-01-02T11:42:59.397Z,20.81
2023-01-02T11:45:26.558Z,20.74
2023-01-02T11:47:56.200Z,20.54
2023-01-02T11:50:24.674Z,21.09
2023-01-02T11:53:09.703Z,21.20
2023-01-02T11:55:36.072Z,20.68
2023-01-02T11:58:31.975Z,20.64
2023-01-02T12:01:11.113Z,19.89
2023-01-02T12:03:38.924Z,19.99
2023-01-02T12:06:16.826Z,20.23
2023-01-02T12:08:51.633Z,20.48
2023-01-02T12:11:21.289Z,20.35
2023-01-02T12:14:06.607Z,20.64
2023-01-02T12:16:38.990Z,20.56
2023-01-02T12:19:11.188Z,19.98
2023-01-02T12:21:40.661Z,18.56
2023-01-02T12:24:29.125Z,17.40
2023-01-02T12:27:07.857Z,16.38
2023-01-02T12:29:59.340Z,16.16
2023-01-02T12:32:51.947Z,15.58
2023-01-02T12:35:30.459Z,15.11
2023-01-02T12:38:02.080Z,15.25
2023-01-02T12:41:00.889Z,15.42
2023-01-02T12:43:41.812Z,15.39
2023-01-02T12:46:08.179Z,15.16
2023-01-02T12:48:46.216Z,15.18
2023-01-02T12:51:18.706Z,14.90
2023-01-02T12:54:20.375Z,15.21
2023-01-02T12:56:43.906Z,15.34
2023-01-02T12:59:28.675Z,15.57
2023-01-02T13:02:13.995Z,15.23
2023-01-02T13:04:42.522Z,15.04
2023-01-02T13:07:15.107Z,15.06
2023-01-02T13:09:42.824Z,15.29
2023-01-02T13:12:16.701Z,15.42
2023-01-02T13:14:55.062Z,15.06
2023-01-02T13:17:27.761Z,15.01
2023-01-02T13:19:58.384Z,15.04
2023-01-02T13:22:30.938Z,15.07
2023-01-02T13:24:57.964Z,14.89
2023-01-02T13:27:24.718Z,14.61
2023-01-02T13:29:52.909Z,14.27
2023-01-02T13:32:26.999Z,13.94
2023-01-02T13:34:54.463Z,13.67
2023-01-02T13:37:25.888Z,13.31
2023-01-02T13:39:54.780Z,13.19
2023-01-02T13:42:47.984Z,12.93
2023-01-02T13:45:16.301Z,12.80
2023-01-02T13:47:48.332Z,12.68
2023-01-02T13:50:29.975Z,12.64
2023-01-02T13:53:11.695Z,12.60
2023-01-02T13:55:40.909Z,12.55
2023-01-02T13:58:17.771Z,12.45
2023-01-02T14:00:51.580Z,12.21
2023-01-02T14:03:20.666Z,11.97
2023-01-02T14:06:00.931Z,11.88
2023-01-02T14:08:28.845Z,11.74
2023-01-02T14:11:18.101Z,11.62
2023-01-02T14:13:49.437Z,11.37
2023-01-02T14:16:15.812Z,11.30
2023-01-02T14:18:46.280Z,11.20
2023-01-02T14:21:13.792Z,11.05
2023-01-02T14:23:42.681Z,10.97
2023-01-02T14:26:33.225Z,10.79
2023-01-02T14:29:05.152Z,10.64
2023-01-02T14:31:33.554Z,10.44
2023-01-02T14:34:00.573Z,10.26
2023-01-02T14:36:41.684Z,10.06
2023-01-02T14:39:11.273Z,9.89
2023-01-02T14:42:08.282Z,9.70
2023-01-02T14:44:45.612Z,9.51
2023-01-02T14:47:14.640Z,9.37
2023-01-02T14:49:42.365Z,9.21
2023-01-02T14:52:13.449Z,9.02
2023-01-02T14:54:48.979Z,8.80
2023-01-02T14:57:32.369Z,8.68
2023-01-02T15:00:01.349Z,8.53
2023-01-02T15:02:34.341Z,8.32
2023-01-02T15:05:06.999Z,8.10
2023-01-02T15:07:35.494Z,7.97
2023-01-02T15:10:04.278Z,7.79
2023-01-02T15:12:50.932Z,7.66
2023-01-02T15:15:18.613Z,7.47
2023-01-02T15:17:46.966Z,7.30
2023-01-02T15:20:21.543Z,7.18
2023-01-02T15:22:48.011Z,7.01
2023-01-02T15:25:15.259Z,6.93
2023-01-02T15:27:42.005Z,6.84
2023-01-02T15:30:22.168Z,6.76
2023-01-02T15:32:48.931Z,6.66
2023-01-02T15:35:15.285Z,6.57
2023-01-02T15:37:45.314Z,6.40
2023-01-02T15:40:16.023Z,6.26
2023-01-02T15:43:01.752Z,6.11
2023-01-02T15:45:29.668Z,5.94
2023-01-02T15:47:56.559Z,5.81
2023-01-02T15:50:27.591Z,5.70
2023-01-02T15:53:23.962Z,5.71
2023-01-02T15:55:50.577Z,5.62
2023-01-02T15:58:16.957Z,5.59
2023-01-02T16:00:44.349Z,5.52
2023-01-02T16:03:11.825Z,5.48
2023-01-02T16:05:46.560Z,5.43
2023-01-02T16:08:20.745Z,5.26
2023-01-02T16:10:50.989Z,5.13
2023-01-02T16:13:38.139Z,5.13
2023-01-02T16:16:15.666Z,5.00
2023-01-02T16:18:44.129Z,4.94
2023-01-02T16:21:13.052Z,4.90
2023-01-02T16:23:41.255Z,4.86
2023-01-02T16:26:12.243Z,4.81
2023-01-02T16:28:41.896Z,4.76
2023-01-02T16:31:13.097Z,4.73
2023-01-02T16:33:41.815Z,4.65
2023-01-02T16:36:09.809Z,4.58
2023-01-02T16:38:54.956Z,4.50
2023-01-02T16:41:42.120Z,4.52
2023-01-02T16:44:14.081Z,4.39
2023-01-02T16:46:41.613Z,4.36
2023-01-02T16:49:11.578Z,4.31
2023-01-02T16:51:37.939Z,4.23
2023-01-02T16:54:04.462Z,4.15
2023-01-02T16:56:31.605Z,4.08
2023-01-02T16:58:57.983Z,4.04
2023-01-02T17:01:24.606Z,4.06
2023-01-02T17:03:51.045Z,4.04
2023-01-02T17:06:19.066Z,4.00
2023-01-02T17:08:45.721Z,4.06
2023-01-02T17:11:15.944Z,4.06
2023-01-02T17:13:42.425Z,4.07
2023-01-02T17:16:08.824Z,4.07
2023-01-02T17:18:35.252Z,4.05
2023-01-02T17:21:01.661Z,4.02
2023-01-02T17:23:28.085Z,4.01
2023-01-02T17:25:54.575Z,3.95
2023-01-02T17:28:20.959Z,3.88
2023-01-02T17:30:51.306Z,3.87
2023-01-02T17:33:17.992Z,3.80
2023-01-02T17:35:47.580Z,3.78
2023-01-02T17:38:14.062Z,3.73
2023-01-02T17:40:40.474Z,3.70
2023-01-02T17:43:06.891Z,3.70
2023-01-02T17:45:33.507Z,3.64
2023-01-02T17:48:10.571Z,3.62
2023-01-02T17:50:37.965Z,3.58
2023-01-02T17:53:04.387Z,3.57
2023-01-02T17:55:30.819Z,3.48
2023-01-02T17:57:57.259Z,3.44
2023-01-02T18:00:23.942Z,3.44
2023-01-02T18:02:51.958Z,3.35
2023-01-02T18:05:18.490Z,3.37
2023-01-02T18:07:44.934Z,3.36
2023-01-02T18:10:16.045Z,3.27
2023-01-02T18:12:45.794Z,3.24
2023-01-02T18:15:14.348Z,3.15
2023-01-02T18:17:40.731Z,3.05
2023-01-02T18:20:11.099Z,2.99
2023-01-02T18:22:41.094Z,3.04
2023-01-02T18:25:31.035Z,2.90
2023-01-02T18:28:02.879Z,2.90
2023-01-02T18:30:29.374Z,2.75
2023-01-02T18:33:13.491Z,2.72
2023-01-02T18:35:57.289Z,2.61
2023-01-02T18:38:30.093Z,2.51
2023-01-02T18:40:56.593Z,2.51
2023-01-02T18:43:32.211Z,2.44
2023-01-02T18:45:59.924Z,2.44
2023-01-02T18:48:26.802Z,2.44
2023-01-02T18:50:58.393Z,2.32
2023-01-02T18:53:26.557Z,2.28
2023-01-02T18:55:56.869Z,2.30
2023-01-02T18:58:23.258Z,2.31
2023-01-02T19:00:49.721Z,2.30
2023-01-02T19:03:26.148Z,2.18
2023-01-02T19:05:52.629Z,2.23
2023-01-02T19:08:19.331Z,2.14
2023-01-02T19:10:49.716Z,2.13
2023-01-02T19:13:21.840Z,2.11
2023-01-02T19:15:49.574Z,1.99
2023-01-02T19:18:23.837Z,1.86
2023-01-02T19:20:56.564Z,1.81
2023-01-02T19:23:30.467Z,1.80
2023-01-02T19:26:01.161Z,1.86
2023-01-02T19:28:29.036Z,1.88
2023-01-02T19:30:56.160Z,1.88
2023-01-02T19:33:25.431Z,1.78
2023-01-02T19:36:00.036Z,1.75
2023-01-02T19:38:27.897Z,1.60
2023-01-02T19:40:54.343Z,1.62
2023-01-02T19:43:20.917Z,1.62
2023-01-02T19:45:47.544Z,1.66
2023-01-02T19:48:18.060Z,1.63
2023-01-02T19:50:45.216Z,1.68
2023-01-02T19:53:11.627Z,1.75
2023-01-02T19:55:38.054Z,1.76
2023-01-02T19:58:04.815Z,1.81
2023-01-02T20:00:31.642Z,1.80
2023-01-02T20:02:58.238Z,1.90
2023-01-02T20:05:24.957Z,2.06
2023-01-02T20:07:52.502Z,2.25
2023-01-02T20:10:19.067Z,2.44
2023-01-02T20:12:45.520Z,2.61
2023-01-02T20:15:14.937Z,2.77
2023-01-02T20:17:41.880Z,2.89
2023-01-02T20:20:10.090Z,3.07
2023-01-02T20:22:36.529Z,3.10
2023-01-02T20:25:03.099Z,3.17
2023-01-02T20:27:29.526Z,3.25
2023-01-02T20:29:56.042Z,3.25
2023-01-02T20:32:23.072Z,3.27
2023-01-02T20:34:49.605Z,3.28
2023-01-02T20:37:20.922Z,3.32
2023-01-02T20:39:48.491Z,3.38
2023-01-02T20:42:14.939Z,3.32
2023-01-02T20:44:41.762Z,3.31
2023-01-02T20:47:08.340Z,3.35
2023-01-02T20:49:34.760Z,3.39
2023-01-02T20:52:02.378Z,3.46
2023-01-02T20:54:28.932Z,3.49
2023-01-02T20:56:55.467Z,3.55
2023-01-02T20:59:22.225Z,3.56
2023-01-02T21:01:48.908Z,3.60
2023-01-02T21:04:20.483Z,3.71
2023-01-02T21:06:51.199Z,3.73
2023-01-02T21:09:17.578Z,3.77
2023-01-02T21:11:44.034Z,3.80
2023-01-02T21:14:10.377Z,3.77
2023-01-02T21:16:36.919Z,3.84
2023-01-02T21:19:03.457Z,3.82
2023-01-02T21:21:30.767Z,3.85
2023-01-02T21:23:57.245Z,3.77
2023-01-02T21:26:23.771Z,3.83
2023-01-02T21:28:50.507Z,3.83
2023-01-02T21:31:18.000Z,3.81
2023-01-02T21:33:45.009Z,3.79
2023-01-02T21:36:11.441Z,3.73
2023-01-02T21:38:38.219Z,3.63
2023-01-02T21:41:23.086Z,3.52
2023-01-02T21:43:49.467Z,3.33
2023-01-02T21:46:15.977Z,3.30
2023-01-02T21:48:42.409Z,3.30
2023-01-02T21:51:08.843Z,3.45
2023-01-02T21:53:35.415Z,3.50
2023-01-02T21:56:02.105Z,3.61
2023-01-02T21:58:28.536Z,3.68
2023-01-02T22:00:54.970Z,3.74
2023-01-02T22:03:21.500Z,3.71
2023-01-02T22:05:47.936Z,3.74
2023-01-02T22:08:14.477Z,3.76
2023-01-02T22:10:40.852Z,3.75
2023-01-02T22:13:07.271Z,3.77
2023-01-02T22:15:33.740Z,3.73
2023-01-02T22:18:00.135Z,3.63
2023-01-02T22:20:26.546Z,3.62
2023-01-02T22:22:52.930Z,3.58
2023-01-02T22:25:19.291Z,3.55
2023-01-02T22:27:45.663Z,3.60
2023-01-02T22:30:24.333Z,3.65
2023-01-02T22:32:54.608Z,3.70
2023-01-02T22:35:21.223Z,3.77
2023-01-02T22:37:47.637Z,3.85
2023-01-02T22:40:14.153Z,3.90
2023-01-02T22:43:01.505Z,3.88
2023-01-02T22:45:31.889Z,3.89
2023-01-02T22:47:59.383Z,3.90
2023-01-02T22:50:29.213Z,3.93
2023-01-02T22:52:55.790Z,3.94
2023-01-02T22:55:23.679Z,3.94
2023-01-02T22:57:51.797Z,4.06
2023-01-02T23:00:21.702Z,4.05
2023-01-02T23:02:48.364Z,4.02
2023-01-02T23:05:18.545Z,4.09
2023-01-02T23:07:45.268Z,4.05
2023-01-02T23:10:11.798Z,4.08
2023-01-02T23:12:38.243Z,4.04
2023-01-02T23:15:05.400Z,4.06
2023-01-02T23:17:51.015Z,4.12
2023-01-02T23:20:17.795Z,4.15
2023-01-02T23:22:44.159Z,4.11
2023-01-02T23:25:10.700Z,4.11
2023-01-02T23:27:37.103Z,4.09
2023-01-02T23:30:03.797Z,4.08
2023-01-02T23:32:30.148Z,4.08
2023-01-02T23:34:56.531Z,4.08
2023-01-02T23:37:23.004Z,4.10
2023-01-02T23:39:49.433Z,4.17
2023-01-02T23:42:16.331Z,4.23
2023-01-02T23:44:44.041Z,4.25
2023-01-02T23:47:15.766Z,4.30
2023-01-02T23:49:45.235Z,4.42
2023-01-02T23:52:11.627Z,4.47
2023-01-02T23:54:38.122Z,4.48
2023-01-02T23:57:04.568Z,4.53
2023-01-02T23:59:31.083Z,4.56
